createdAt,value
2022-08-17T00:01:32.725Z,55.00
2022-08-17T00:04:20.461Z,55.00
2022-08-17T00:06:49.433Z,54.40
2022-08-17T00:09:18.718Z,54.80
2022-08-17T00:12:03.900Z,54.90
2022-08-17T00:14:36.505Z,54.80
2022-08-17T00:17:07.053Z,54.80
2022-08-17T00:19:34.065Z,55.10
2022-08-17T00:22:35.027Z,55.30
2022-08-17T00:24:49.820Z,55.50
2022-08-17T00:27:17.171Z,55.40
2022-08-17T00:29:45.681Z,55.40
2022-08-17T00:33:10.908Z,55.40
2022-08-17T00:35:00.359Z,55.30
2022-08-17T00:37:27.259Z,54.90
2022-08-17T00:39:54.127Z,55.00
2022-08-17T00:42:20.884Z,55.10
2022-08-17T00:44:47.931Z,54.90
2022-08-17T00:47:14.668Z,54.70
2022-08-17T00:49:41.501Z,55.00
2022-08-17T00:52:15.566Z,54.90
2022-08-17T00:54:46.228Z,55.20
2022-08-17T00:57:21.228Z,55.50
2022-08-17T01:00:02.726Z,55.70
2022-08-17T01:02:34.381Z,55.70
2022-08-17T01:05:16.358Z,55.60
2022-08-17T01:07:47.703Z,55.60
2022-08-17T01:11:00.679Z,55.70
2022-08-17T01:13:03.263Z,56.00
2022-08-17T01:15:33.387Z,55.80
2022-08-17T01:18:00.169Z,55.80
2022-08-17T01:20:27.100Z,55.50
2022-08-17T01:22:54.172Z,54.90
2022-08-17T01:25:22.166Z,54.90
2022-08-17T01:27:49.819Z,54.60
2022-08-17T01:30:58.255Z,54.60
2022-08-17T01:33:05.756Z,54.70
2022-08-17T01:35:32.529Z,54.60
2022-08-17T01:37:59.284Z,54.90
2022-08-17T01:40:39.217Z,55.10
2022-08-17T01:43:11.304Z,55.50
2022-08-17T01:45:43.758Z,55.80
2022-08-17T01:48:12.191Z,56.20
2022-08-17T01:50:41.955Z,57.30
2022-08-17T01:53:18.050Z,56.60
2022-08-17T01:55:50.424Z,56.70
2022-08-17T01:58:17.848Z,56.90
2022-08-17T02:00:59.870Z,56.80
2022-08-17T02:03:29.123Z,57.00
2022-08-17T02:05:56.507Z,57.20
2022-08-17T02:08:36.919Z,57.40
2022-08-17T02:11:11.304Z,57.70
2022-08-17T02:13:38.914Z,57.80
2022-08-17T02:16:05.941Z,57.80
2022-08-17T02:18:32.872Z,57.80
2022-08-17T02:20:59.903Z,57.80
2022-08-17T02:23:30.351Z,57.90
2022-08-17T02:25:59.908Z,57.30
2022-08-17T02:28:28.473Z,56.90
2022-08-17T02:31:02.676Z,56.70
2022-08-17T02:33:37.285Z,56.50
2022-08-17T02:36:12.086Z,56.60
2022-08-17T02:38:39.810Z,56.40
2022-08-17T02:41:06.731Z,56.50
2022-08-17T02:43:33.470Z,56.00
2022-08-17T02:46:00.224Z,55.70
2022-08-17T02:48:30.513Z,55.30
2022-08-17T02:50:59.200Z,55.40
2022-08-17T02:53:26.125Z,55.90
2022-08-17T02:55:53.222Z,55.00
2022-08-17T02:58:34.733Z,55.10
2022-08-17T03:01:07.303Z,55.10
2022-08-17T03:03:35.149Z,54.80
2022-08-17T03:06:02.368Z,54.70
2022-08-17T03:08:29.623Z,55.10
2022-08-17T03:10:56.700Z,54.90
2022-08-17T03:13:24.116Z,55.10
2022-08-17T03:15:50.992Z,55.20
2022-08-17T03:18:24.848Z,55.20
2022-08-17T03:20:58.689Z,54.80
2022-08-17T03:23:27.271Z,54.90
2022-08-17T03:25:55.170Z,54.60
2022-08-17T03:28:23.193Z,55.10
2022-08-17T03:30:51.129Z,54.90
2022-08-17T03:33:18.682Z,54.70
2022-08-17T03:35:45.905Z,54.80
2022-08-17T03:38:15.216Z,54.90
2022-08-17T03:40:57.380Z,54.60
2022-08-17T03:43:28.274Z,54.20
2022-08-17T03:46:33.981Z,53.70
2022-08-17T03:49:19.133Z,53.80
2022-08-17T03:52:04.214Z,53.80
2022-08-17T03:54:49.655Z,54.10
2022-08-17T03:57:16.588Z,54.60
2022-08-17T03:59:45.042Z,55.10
2022-08-17T04:02:18.771Z,55.50
2022-08-17T04:04:45.637Z,55.50
2022-08-17T04:07:12.527Z,55.30
2022-08-17T04:09:39.360Z,55.30
2022-08-17T04:12:06.361Z,55.20
2022-08-17T04:14:53.245Z,55.00
2022-08-17T04:17:23.526Z,55.20
2022-08-17T04:19:50.436Z,55.40
2022-08-17T04:22:30.508Z,55.00
2022-08-17T04:25:15.909Z,55.10
2022-08-17T04:27:42.766Z,55.20
2022-08-17T04:30:10.195Z,55.20
2022-08-17T04:33:08.539Z,55.40
2022-08-17T04:35:41.799Z,55.60
2022-08-17T04:38:13.236Z,55.70
2022-08-17T04:40:58.972Z,55.80
2022-08-17T04:43:27.525Z,56.10
2022-08-17T04:45:57.245Z,56.40
2022-08-17T04:48:29.703Z,56.50
2022-08-17T04:51:07.132Z,56.90
2022-08-17T04:53:34.027Z,57.10
2022-08-17T04:56:00.831Z,57.60
2022-08-17T04:58:27.663Z,58.10
2022-08-17T05:00:54.463Z,58.60
2022-08-17T05:03:21.423Z,59.00
2022-08-17T05:05:49.711Z,59.30
2022-08-17T05:08:19.240Z,59.50
2022-08-17T05:10:46.858Z,59.70
2022-08-17T05:13:17.478Z,60.00
2022-08-17T05:15:47.869Z,60.10
2022-08-17T05:18:16.020Z,60.20
2022-08-17T05:20:43.493Z,60.50
2022-08-17T05:23:13.400Z,60.50
2022-08-17T05:25:47.743Z,60.50
2022-08-17T05:28:16.708Z,60.50
2022-08-17T05:30:44.719Z,60.40
2022-08-17T05:33:22.958Z,60.40
2022-08-17T05:35:54.564Z,60.40
2022-08-17T05:38:22.943Z,60.50
2022-08-17T05:40:50.341Z,60.10
2022-08-17T05:43:21.112Z,60.30
2022-08-17T05:45:55.795Z,60.50
2022-08-17T05:48:35.605Z,60.90
2022-08-17T05:51:41.634Z,61.30
2022-08-17T05:54:30.375Z,61.90
2022-08-17T05:57:20.834Z,61.70
2022-08-17T06:00:03.381Z,61.90
2022-08-17T06:03:14.430Z,61.60
2022-08-17T06:06:02.543Z,60.90
2022-08-17T06:08:48.056Z,60.90
2022-08-17T06:11:37.320Z,60.40
2022-08-17T06:14:43.124Z,60.20
2022-08-17T06:17:14.880Z,60.00
2022-08-17T06:19:48.856Z,59.50
2022-08-17T06:22:18.422Z,60.00
2022-08-17T06:24:56.681Z,59.90
2022-08-17T06:27:53.850Z,60.00
2022-08-17T06:30:59.944Z,60.00
2022-08-17T06:33:23.658Z,60.00
2022-08-17T06:36:09.982Z,59.80
2022-08-17T06:39:10.317Z,59.60
2022-08-17T06:42:54.042Z,59.50
2022-08-17T06:45:09.951Z,59.60
2022-08-17T06:47:55.278Z,59.30
2022-08-17T06:50:35.919Z,59.30
2022-08-17T06:53:21.053Z,59.40
2022-08-17T06:56:05.869Z,59.80
2022-08-17T06:58:35.642Z,59.80
2022-08-17T07:01:20.172Z,59.60
2022-08-17T07:03:59.349Z,59.60
2022-08-17T07:06:49.208Z,60.20
2022-08-17T07:09:25.441Z,60.10
2022-08-17T07:11:54.448Z,60.00
2022-08-17T07:14:36.456Z,59.80
2022-08-17T07:17:09.044Z,60.00
2022-08-17T07:19:40.519Z,59.80
2022-08-17T07:22:27.864Z,60.10
2022-08-17T07:25:09.637Z,60.20
2022-08-17T07:27:43.114Z,60.60
2022-08-17T07:30:26.101Z,60.50
2022-08-17T07:33:09.688Z,60.60
2022-08-17T07:35:48.062Z,60.70
2022-08-17T07:38:26.799Z,60.40
2022-08-17T07:41:03.555Z,60.50
2022-08-17T07:43:42.321Z,60.40
2022-08-17T07:46:41.861Z,60.50
2022-08-17T07:49:14.460Z,61.30
2022-08-17T07:51:56.639Z,60.50
2022-08-17T07:54:35.696Z,60.50
2022-08-17T07:57:14.232Z,60.00
2022-08-17T07:59:43.963Z,60.00
2022-08-17T08:02:17.087Z,60.10
2022-08-17T08:05:03.500Z,60.00
2022-08-17T08:07:58.215Z,60.10
2022-08-17T08:10:45.290Z,60.50
2022-08-17T08:13:14.597Z,60.30
2022-08-17T08:15:54.082Z,60.30
2022-08-17T08:18:38.623Z,60.20
2022-08-17T08:21:22.359Z,60.00
2022-08-17T08:24:01.004Z,59.90
2022-08-17T08:26:47.267Z,59.60
2022-08-17T08:29:43.283Z,59.70
2022-08-17T08:32:33.346Z,59.70
2022-08-17T08:35:08.650Z,57.60
2022-08-17T08:37:43.150Z,57.10
2022-08-17T08:40:40.972Z,55.80
2022-08-17T08:43:22.009Z,55.90
2022-08-17T08:46:11.693Z,55.60
2022-08-17T08:49:06.559Z,55.80
2022-08-17T08:51:37.167Z,54.20
2022-08-17T08:54:16.732Z,53.20
2022-08-17T08:57:23.256Z,52.20
2022-08-17T08:59:58.064Z,52.30
2022-08-17T09:02:37.169Z,50.50
2022-08-17T09:05:37.857Z,50.50
2022-08-17T09:08:11.005Z,51.20
2022-08-17T09:10:49.723Z,50.20
2022-08-17T09:13:23.911Z,51.00
2022-08-17T09:15:59.976Z,52.10
2022-08-17T09:19:03.215Z,52.80
2022-08-17T09:21:23.682Z,52.00
2022-08-17T09:24:20.726Z,52.70
2022-08-17T09:27:20.000Z,53.10
2022-08-17T09:29:51.533Z,53.90
2022-08-17T09:32:31.283Z,55.30
2022-08-17T09:35:04.364Z,54.40
2022-08-17T09:37:47.548Z,54.30
2022-08-17T09:40:46.948Z,54.80
2022-08-17T09:43:31.849Z,56.60
2022-08-17T09:46:15.905Z,57.70
2022-08-17T09:48:55.273Z,58.70
2022-08-17T09:51:30.288Z,59.40
2022-08-17T09:54:09.689Z,59.70
2022-08-17T09:57:25.832Z,59.60
2022-08-17T10:00:23.655Z,59.40
2022-08-17T10:03:28.151Z,58.10
2022-08-17T10:06:21.786Z,57.10
2022-08-17T10:09:00.125Z,57.50
2022-08-17T10:12:00.033Z,57.10
2022-08-17T10:14:44.420Z,57.60
2022-08-17T10:17:20.396Z,56.20
2022-08-17T10:20:00.849Z,56.40
2022-08-17T10:22:54.875Z,56.00
2022-08-17T10:25:54.989Z,55.50
2022-08-17T10:28:29.797Z,56.80
2022-08-17T10:34:22.855Z,56.50
2022-08-17T10:37:12.196Z,56.10
2022-08-17T10:40:07.327Z,56.60
2022-08-17T10:42:48.958Z,56.00
2022-08-17T10:45:20.756Z,53.90
2022-08-17T10:48:06.859Z,53.60
2022-08-17T10:50:46.219Z,54.30
2022-08-17T10:53:33.245Z,54.50
2022-08-17T10:56:12.289Z,55.30
2022-08-17T10:58:46.476Z,54.80
2022-08-17T11:01:13.567Z,54.10
2022-08-17T11:03:54.016Z,54.00
2022-08-17T11:06:38.871Z,54.50
2022-08-17T11:09:27.563Z,55.00
2022-08-17T11:12:23.919Z,56.00
2022-08-17T11:14:57.793Z,56.00
2022-08-17T11:17:57.501Z,57.10
2022-08-17T11:20:24.217Z,57.90
2022-08-17T11:23:23.854Z,58.10
2022-08-17T11:25:57.552Z,57.70
2022-08-17T11:28:34.245Z,57.50
2022-08-17T11:31:38.904Z,57.90
2022-08-17T11:34:17.072Z,58.30
2022-08-17T11:37:15.189Z,58.70
2022-08-17T11:39:56.584Z,58.80
2022-08-17T11:42:55.331Z,58.20
2022-08-17T11:45:32.346Z,58.40
2022-08-17T11:48:50.437Z,59.30
2022-08-17T11:51:34.814Z,59.60
2022-08-17T11:54:31.518Z,59.70
2022-08-17T11:56:53.544Z,60.40
2022-08-17T11:59:45.801Z,61.30
2022-08-17T12:02:35.188Z,62.30
2022-08-17T12:05:23.277Z,62.60
2022-08-17T12:08:17.576Z,62.40
2022-08-17T12:12:11.123Z,62.70
2022-08-17T12:14:10.040Z,62.80
2022-08-17T12:16:38.392Z,62.50
2022-08-17T12:19:05.986Z,62.70
2022-08-17T12:21:40.471Z,62.50
2022-08-17T12:24:33.388Z,62.70
2022-08-17T12:27:04.232Z,62.90
2022-08-17T12:29:35.594Z,62.70
2022-08-17T12:32:12.990Z,62.60
2022-08-17T12:34:42.599Z,62.70
2022-08-17T12:37:18.519Z,62.50
2022-08-17T12:39:57.658Z,63.40
2022-08-17T12:42:37.516Z,62.90
2022-08-17T12:45:07.425Z,63.00
2022-08-17T12:47:37.452Z,62.80
2022-08-17T12:50:29.087Z,62.50
2022-08-17T12:52:59.727Z,62.70
2022-08-17T12:55:33.836Z,63.20
2022-08-17T12:58:02.290Z,63.50
2022-08-17T13:00:35.413Z,63.60
2022-08-17T13:03:15.602Z,63.70
2022-08-17T13:05:55.160Z,63.70
2022-08-17T13:08:35.594Z,63.30
2022-08-17T13:11:18.410Z,63.50
2022-08-17T13:13:51.847Z,63.70
2022-08-17T13:16:21.993Z,64.00
2022-08-17T13:19:06.977Z,64.30
2022-08-17T13:21:35.339Z,64.60
2022-08-17T13:24:10.892Z,64.50
2022-08-17T13:26:48.174Z,64.50
2022-08-17T13:29:39.233Z,64.50
2022-08-17T13:32:13.457Z,64.60
2022-08-17T13:35:11.944Z,64.70
2022-08-17T13:37:37.086Z,64.90
2022-08-17T13:40:09.618Z,64.60
2022-08-17T13:42:50.374Z,64.50
2022-08-17T13:45:35.520Z,64.50
2022-08-17T13:48:21.666Z,64.60
2022-08-17T13:50:57.409Z,64.70
2022-08-17T13:53:53.267Z,64.50
2022-08-17T13:57:04.536Z,64.60
2022-08-17T13:59:54.565Z,65.00
2022-08-17T14:02:27.555Z,65.20
2022-08-17T14:04:56.940Z,65.00
2022-08-17T14:07:37.961Z,65.20
2022-08-17T14:10:12.499Z,64.80
2022-08-17T14:12:41.589Z,64.80
2022-08-17T14:15:09.701Z,65.00
2022-08-17T14:17:47.093Z,65.00
2022-08-17T14:20:14.698Z,65.00
2022-08-17T14:22:48.303Z,65.20
2022-08-17T14:25:20.744Z,65.10
2022-08-17T14:27:52.816Z,64.90
2022-08-17T14:30:23.654Z,64.80
2022-08-17T14:32:52.058Z,64.80
2022-08-17T14:35:22.339Z,64.80
2022-08-17T14:37:50.467Z,64.40
2022-08-17T14:40:20.681Z,64.50
2022-08-17T14:42:48.051Z,64.40
2022-08-17T14:45:30.470Z,64.60
2022-08-17T14:48:01.289Z,64.70
2022-08-17T14:50:28.105Z,64.60
2022-08-17T14:52:57.948Z,64.60
2022-08-17T14:55:25.071Z,64.70
2022-08-17T14:57:52.053Z,64.80
2022-08-17T15:00:19.089Z,64.60
2022-08-17T15:02:54.032Z,64.50
2022-08-17T15:05:23.377Z,64.70
2022-08-17T15:07:50.560Z,63.70
2022-08-17T15:10:17.655Z,63.70
2022-08-17T15:12:44.448Z,63.70
2022-08-17T15:15:13.910Z,63.60
2022-08-17T15:17:45.872Z,63.70
2022-08-17T15:20:19.031Z,63.90
2022-08-17T15:22:49.690Z,64.40
2022-08-17T15:25:17.989Z,64.70
2022-08-17T15:27:44.849Z,64.90
2022-08-17T15:30:12.212Z,65.10
2022-08-17T15:32:41.068Z,64.70
2022-08-17T15:35:18.157Z,64.80
2022-08-17T15:37:45.375Z,64.90
2022-08-17T15:40:12.892Z,65.20
2022-08-17T15:42:40.952Z,65.20
2022-08-17T15:45:11.344Z,65.20
2022-08-17T15:47:38.905Z,65.40
2022-08-17T15:50:07.981Z,65.60
2022-08-17T15:52:40.456Z,65.80
2022-08-17T15:55:10.818Z,65.70
2022-08-17T15:57:37.762Z,66.00
2022-08-17T16:00:07.753Z,65.30
2022-08-17T16:03:14.192Z,65.40
2022-08-17T16:05:28.531Z,65.20
2022-08-17T16:07:59.526Z,64.70
2022-08-17T16:10:34.776Z,64.80
2022-08-17T16:13:03.319Z,64.80
2022-08-17T16:15:31.500Z,64.60
2022-08-17T16:17:58.539Z,64.60
2022-08-17T16:20:25.947Z,64.50
2022-08-17T16:22:54.138Z,64.20
2022-08-17T16:25:50.413Z,64.30
2022-08-17T16:28:11.838Z,64.20
2022-08-17T16:30:38.908Z,64.50
2022-08-17T16:33:06.021Z,64.40
2022-08-17T16:35:33.273Z,64.40
2022-08-17T16:38:00.470Z,64.40
2022-08-17T16:40:29.668Z,63.80
2022-08-17T16:43:00.140Z,63.30
2022-08-17T16:45:36.789Z,63.40
2022-08-17T16:48:04.431Z,64.00
2022-08-17T16:50:32.017Z,63.20
2022-08-17T16:53:17.811Z,63.30
2022-08-17T16:55:49.114Z,63.50
2022-08-17T16:58:16.125Z,63.20
2022-08-17T17:00:45.043Z,63.30
2022-08-17T17:03:18.972Z,63.50
2022-08-17T17:06:03.768Z,63.90
2022-08-17T17:08:57.420Z,63.40
2022-08-17T17:11:43.108Z,62.90
2022-08-17T17:14:16.788Z,62.70
2022-08-17T17:16:51.732Z,62.60
2022-08-17T17:19:47.714Z,62.70
2022-08-17T17:22:25.148Z,62.90
2022-08-17T17:25:02.379Z,62.90
2022-08-17T17:28:06.624Z,63.20
2022-08-17T17:30:53.443Z,63.70
2022-08-17T17:33:27.317Z,63.80
2022-08-17T17:36:01.660Z,63.90
2022-08-17T17:38:37.748Z,63.90
2022-08-17T17:41:11.077Z,64.00
2022-08-17T17:43:40.192Z,63.90
2022-08-17T17:46:27.114Z,64.00
2022-08-17T17:48:56.718Z,64.20
2022-08-17T17:51:55.712Z,64.20
2022-08-17T17:54:43.581Z,64.40
2022-08-17T17:57:28.661Z,64.20
2022-08-17T18:00:24.263Z,64.10
2022-08-17T18:03:23.852Z,64.20
2022-08-17T18:06:21.664Z,64.20
2022-08-17T18:08:49.140Z,64.50
2022-08-17T18:11:24.606Z,64.50
2022-08-17T18:14:39.805Z,64.70
2022-08-17T18:17:07.111Z,64.80
2022-08-17T18:19:33.959Z,64.80
2022-08-17T18:22:06.953Z,64.80
2022-08-17T18:24:38.520Z,65.00
2022-08-17T18:27:23.734Z,65.30
2022-08-17T18:29:53.709Z,65.70
2022-08-17T18:32:46.295Z,65.70
2022-08-17T18:35:15.641Z,66.20
2022-08-17T18:37:52.728Z,66.60
2022-08-17T18:40:19.748Z,66.70
2022-08-17T18:42:56.632Z,67.00
2022-08-17T18:45:38.220Z,67.20
2022-08-17T18:48:17.832Z,67.50
2022-08-17T18:50:44.995Z,67.10
2022-08-17T18:53:40.618Z,67.70
2022-08-17T18:56:30.529Z,67.50
2022-08-17T18:59:26.898Z,68.40
2022-08-17T19:01:58.871Z,71.40
2022-08-17T19:04:37.513Z,73.40
2022-08-17T19:07:23.162Z,74.00
2022-08-17T19:10:04.540Z,74.70
2022-08-17T19:12:33.540Z,75.00
2022-08-17T19:15:01.013Z,74.70
2022-08-17T19:17:39.396Z,75.40
2022-08-17T19:20:20.156Z,76.00
2022-08-17T19:23:01.459Z,75.70
2022-08-17T19:25:34.254Z,76.10
2022-08-17T19:28:21.815Z,76.10
2022-08-17T19:30:54.669Z,76.20
2022-08-17T19:33:21.713Z,76.50
2022-08-17T19:36:09.773Z,77.10
2022-08-17T19:38:43.879Z,78.00
2022-08-17T19:41:26.770Z,77.50
2022-08-17T19:44:02.580Z,77.80
2022-08-17T19:46:37.274Z,77.50
2022-08-17T19:49:12.515Z,77.50
2022-08-17T19:51:45.356Z,77.10
2022-08-17T19:54:33.640Z,77.30
2022-08-17T19:57:06.647Z,77.80
2022-08-17T19:59:59.186Z,77.40
2022-08-17T20:03:06.085Z,78.10
2022-08-17T20:06:11.008Z,77.80
2022-08-17T20:09:05.971Z,77.70
2022-08-17T20:12:04.057Z,77.90
2022-08-17T20:14:53.912Z,78.40
2022-08-17T20:17:28.464Z,77.90
2022-08-17T20:20:02.520Z,77.40
2022-08-17T20:22:51.838Z,77.40
2022-08-17T20:25:51.296Z,77.60
2022-08-17T20:28:31.079Z,77.50
2022-08-17T20:30:58.546Z,77.70
2022-08-17T20:33:38.176Z,77.00
2022-08-17T20:36:24.245Z,77.70
2022-08-17T20:38:56.652Z,77.80
2022-08-17T20:41:28.357Z,77.40
2022-08-17T20:43:58.816Z,77.50
2022-08-17T20:46:28.610Z,77.30
2022-08-17T20:49:26.033Z,77.30
2022-08-17T20:52:02.499Z,77.90
2022-08-17T20:54:44.240Z,77.10
2022-08-17T20:57:32.689Z,77.60
2022-08-17T21:00:24.181Z,77.50
2022-08-17T21:03:11.997Z,77.10
2022-08-17T21:05:58.842Z,76.80
2022-08-17T21:08:29.635Z,77.50
2022-08-17T21:10:57.998Z,76.80
2022-08-17T21:13:39.249Z,76.70
2022-08-17T21:16:25.659Z,77.00
2022-08-17T21:18:58.394Z,77.10
2022-08-17T21:21:41.476Z,76.00
2022-08-17T21:24:25.082Z,76.10
2022-08-17T21:27:13.983Z,76.20
2022-08-17T21:30:22.954Z,75.90
2022-08-17T21:33:18.842Z,76.70
2022-08-17T21:35:50.066Z,76.40
2022-08-17T21:38:21.209Z,75.50
2022-08-17T21:40:52.642Z,75.40
2022-08-17T21:43:37.437Z,75.30
2022-08-17T21:46:21.861Z,76.00
2022-08-17T21:48:54.326Z,75.60
2022-08-17T21:51:26.295Z,75.00
2022-08-17T21:53:57.340Z,75.00
2022-08-17T21:56:33.657Z,75.00
2022-08-17T21:59:04.748Z,75.10
2022-08-17T22:01:37.504Z,74.70
2022-08-17T22:04:06.541Z,74.80
2022-08-17T22:06:56.673Z,74.80
2022-08-17T22:09:28.525Z,74.90
2022-08-17T22:12:16.435Z,74.70
2022-08-17T22:14:58.864Z,75.20
2022-08-17T22:17:29.990Z,74.60
2022-08-17T22:20:06.078Z,74.10
2022-08-17T22:22:55.660Z,74.00
2022-08-17T22:25:24.151Z,74.00
2022-08-17T22:27:58.100Z,74.10
2022-08-17T22:30:41.950Z,73.80
2022-08-17T22:33:49.640Z,74.10
2022-08-17T22:36:26.888Z,74.00
2022-08-17T22:39:00.304Z,73.50
2022-08-17T22:41:42.257Z,73.00
2022-08-17T22:44:29.662Z,73.10
2022-08-17T22:47:14.526Z,73.10
2022-08-17T22:49:57.636Z,73.10
2022-08-17T22:52:59.751Z,73.40
2022-08-17T22:55:47.683Z,73.50
2022-08-17T22:58:38.728Z,73.30
2022-08-17T23:01:45.434Z,73.30
2022-08-17T23:04:31.585Z,73.60
2022-08-17T23:06:58.476Z,73.20
2022-08-17T23:09:25.345Z,72.90
2022-08-17T23:11:58.634Z,72.70
2022-08-17T23:14:31.757Z,72.40
2022-08-17T23:16:59.730Z,72.30
2022-08-17T23:19:27.946Z,72.30
2022-08-17T23:21:56.243Z,72.20
2022-08-17T23:24:27.060Z,72.20
2022-08-17T23:26:57.191Z,72.20
2022-08-17T23:29:29.474Z,72.30
2022-08-17T23:31:59.783Z,72.10
2022-08-17T23:34:27.966Z,72.10
2022-08-17T23:36:55.947Z,72.20
2022-08-17T23:39:27.484Z,72.20
2022-08-17T23:41:58.771Z,72.10
2022-08-17T23:44:26.567Z,71.80
2022-08-17T23:46:53.853Z,71.70
2022-08-17T23:49:20.616Z,71.60
2022-08-17T23:51:48.617Z,71.50
2022-08-17T23:54:35.001Z,71.00
2022-08-17T23:57:04.226Z,71.10
2022-08-17T23:59:32.957Z,70.70
